Time;durP1;ratioP1;P1;durP2;ratioP2;P2;SDS_P1;SDS_P2;PMS_P1;PMS_P2;Temp;Humidity;BMP_temperature;BMP_pressure;BME280_temperature;BME280_humidity;BME280_pressure;Samples;Min_cycle;Max_cycle;Signal;HPM_P1;HPM_P2
2023/09/09 00:01:38;;;;;;;14.75;8.40;;;;;;;23.87;59.17;100159.28;5044040;28;20052;-45
2023/09/09 00:04:05;;;;;;;24.25;8.35;;;;;;;23.84;59.48;100159.47;5045327;28;20059;-46
2023/09/09 00:06:32;;;;;;;14.40;8.23;;;;;;;23.81;59.67;100164.94;5045764;28;20131;-44
2023/09/09 00:08:59;;;;;;;17.42;7.50;;;;;;;23.80;59.47;100168.53;5045652;28;20131;-45
2023/09/09 00:11:25;;;;;;;14.32;7.50;;;;;;;23.78;59.53;100166.91;5046592;28;20239;-45
2023/09/09 00:13:53;;;;;;;22.27;8.18;;;;;;;23.75;59.48;100163.47;5045191;28;20041;-45
2023/09/09 00:16:20;;;;;;;19.23;8.65;;;;;;;23.73;59.49;100167.16;5043598;28;20486;-46
2023/09/09 00:18:47;;;;;;;19.65;8.00;;;;;;;23.69;59.65;100160.34;5046441;28;20052;-44
2023/09/09 00:21:14;;;;;;;13.32;7.72;;;;;;;23.66;59.78;100166.66;5045108;28;20049;-44
2023/09/09 00:23:42;;;;;;;14.18;8.15;;;;;;;23.65;59.80;100161.44;5044633;28;20099;-47
2023/09/09 00:26:08;;;;;;;17.48;8.70;;;;;;;23.62;59.83;100162.47;5043869;28;20049;-46
2023/09/09 00:28:35;;;;;;;16.83;8.48;;;;;;;23.60;59.70;100157.28;5046544;28;20048;-46
2023/09/09 00:31:02;;;;;;;17.05;7.88;;;;;;;23.58;60.18;100153.84;5043857;28;20752;-45
2023/09/09 00:33:29;;;;;;;11.95;8.13;;;;;;;23.56;59.50;100158.38;5046470;28;20051;-46
2023/09/09 00:36:00;;;;;;;16.73;8.60;;;;;;;23.55;59.72;100161.97;5044037;28;20060;-49
2023/09/09 00:38:27;;;;;;;14.38;8.48;;;;;;;23.54;60.53;100154.13;5048813;28;20742;-46
2023/09/09 00:41:15;;;;;;;17.63;8.65;;;;;;;23.45;60.49;100147.56;5044630;28;20048;-46
2023/09/09 00:43:43;;;;;;;17.95;9.23;;;;;;;23.50;60.30;100150.78;5070885;28;20053;-44
2023/09/09 00:46:11;;;;;;;13.50;10.07;;;;;;;23.48;60.46;100148.22;5025730;28;20057;-47
2023/09/09 00:48:38;;;;;;;19.90;9.80;;;;;;;23.45;60.33;100148.41;5043100;28;20052;-42
2023/09/09 00:51:06;;;;;;;17.83;9.50;;;;;;;23.43;60.82;100149.41;5055052;28;20059;-43
2023/09/09 00:53:34;;;;;;;16.15;9.05;;;;;;;23.40;61.01;100147.81;5047413;28;20056;-48
2023/09/09 00:56:05;;;;;;;13.63;7.85;;;;;;;23.38;60.41;100151.47;5043797;28;20052;-46
2023/09/09 00:58:32;;;;;;;17.25;9.38;;;;;;;23.34;60.24;100141.03;5049352;28;20047;-42
2023/09/09 01:01:01;;;;;;;19.95;10.18;;;;;;;23.33;60.49;100139.34;5032854;28;20410;-47
2023/09/09 01:03:29;;;;;;;20.27;10.60;;;;;;;23.31;61.16;100145.66;5038683;28;20060;-47
2023/09/09 01:05:56;;;;;;;15.02;9.52;;;;;;;23.28;61.07;100141.38;5047459;28;20057;-48
2023/09/09 01:08:26;;;;;;;20.98;11.32;;;;;;;23.28;60.49;100136.09;5045678;28;20522;-43
2023/09/09 01:10:53;;;;;;;20.35;11.02;;;;;;;23.24;61.02;100139.84;5048339;28;20045;-44
2023/09/09 01:13:20;;;;;;;16.45;10.23;;;;;;;23.22;61.17;100139.06;5042842;28;20060;-44
2023/09/09 01:15:47;;;;;;;20.85;10.88;;;;;;;23.19;60.47;100142.75;5038225;28;20053;-47
2023/09/09 01:18:15;;;;;;;20.65;11.00;;;;;;;23.16;61.03;100136.75;5047433;28;20118;-48
2023/09/09 01:20:46;;;;;;;14.85;9.05;;;;;;;23.13;60.99;100129.00;5046124;28;20049;-45
2023/09/09 01:23:12;;;;;;;19.23;9.95;;;;;;;23.09;61.38;100125.66;5044396;28;20053;-45
2023/09/09 01:25:39;;;;;;;20.38;9.95;;;;;;;23.07;61.33;100125.75;5046255;28;20037;-46
2023/09/09 01:28:06;;;;;;;16.73;9.70;;;;;;;23.05;61.17;100130.28;5043243;28;20050;-50
2023/09/09 01:30:32;;;;;;;20.52;10.10;;;;;;;23.04;61.65;100128.59;5047290;28;20418;-50
2023/09/09 01:32:59;;;;;;;17.52;10.73;;;;;;;23.01;61.12;100123.47;5042758;28;20106;-47
2023/09/09 01:35:26;;;;;;;17.65;10.38;;;;;;;22.97;61.46;100128.03;5045237;28;20044;-50
2023/09/09 01:37:52;;;;;;;13.70;9.77;;;;;;;22.95;62.17;100126.41;5046372;28;20049;-44
2023/09/09 01:40:19;;;;;;;17.98;9.85;;;;;;;22.92;61.81;100118.66;5045735;28;20045;-46
2023/09/09 01:42:47;;;;;;;18.45;10.27;;;;;;;22.90;61.61;100123.19;5044756;28;20049;-46
2023/09/09 01:45:14;;;;;;;15.30;9.55;;;;;;;22.86;61.39;100122.47;5047458;28;20052;-44
2023/09/09 01:47:41;;;;;;;20.10;9.82;;;;;;;22.83;62.37;100120.84;5046962;28;20106;-45
2023/09/09 01:50:08;;;;;;;22.48;10.52;;;;;;;22.81;62.35;100125.38;5047631;28;20045;-46
2023/09/09 01:52:34;;;;;;;24.65;9.95;;;;;;;22.80;61.96;100126.28;5048665;28;20075;-48
2023/09/09 01:55:01;;;;;;;16.67;9.77;;;;;;;22.77;62.14;100115.91;5047728;28;20041;-45
2023/09/09 01:57:29;;;;;;;19.02;10.13;;;;;;;22.75;62.41;100120.41;5046693;28;20526;-44
2023/09/09 01:59:57;;;;;;;16.35;9.60;;;;;;;22.72;62.10;100124.06;5039728;28;20072;-47
2023/09/09 02:02:23;;;;;;;18.67;9.25;;;;;;;22.68;62.48;100116.38;5031936;28;20052;-46
2023/09/09 02:04:50;;;;;;;18.20;9.93;;;;;;;22.65;62.53;100117.41;5032350;28;20044;-48
2023/09/09 02:07:17;;;;;;;21.77;10.68;;;;;;;22.63;61.92;100119.25;5046822;28;20041;-48
2023/09/09 02:09:44;;;;;;;23.50;10.45;;;;;;;22.62;62.62;100116.72;5046696;28;20048;-47
2023/09/09 02:12:11;;;;;;;17.85;10.60;;;;;;;22.60;62.15;100119.44;5042360;28;20060;-46
2023/09/09 02:14:38;;;;;;;15.68;9.93;;;;;;;22.59;62.44;100118.56;5044414;28;20033;-45
2023/09/09 02:17:04;;;;;;;23.73;10.32;;;;;;;22.57;62.87;100115.19;5046564;28;20048;-47
2023/09/09 02:19:31;;;;;;;22.90;10.45;;;;;;;22.56;62.81;100116.09;5046264;28;20053;-45
2023/09/09 02:21:58;;;;;;;14.50;9.43;;;;;;;22.53;63.42;100113.56;5043357;28;20559;-45
2023/09/09 02:24:24;;;;;;;17.33;10.70;;;;;;;22.52;63.40;100111.88;5046312;28;20430;-45
2023/09/09 02:26:51;;;;;;;17.52;10.68;;;;;;;22.51;62.98;100119.88;5038934;28;20060;-47
2023/09/09 02:29:18;;;;;;;17.83;10.30;;;;;;;22.48;62.96;100120.88;5043767;28;20048;-45
2023/09/09 02:31:45;;;;;;;18.27;10.18;;;;;;;22.45;63.29;100121.03;5045330;28;20560;-45
2023/09/09 02:34:11;;;;;;;15.68;9.88;;;;;;;22.43;62.82;100115.00;5042452;28;20045;-42
2023/09/09 02:36:44;;;;;;;18.88;9.85;;;;;;;22.39;62.80;100111.66;5036459;28;20048;-46
2023/09/09 02:39:10;;;;;;;19.20;10.38;;;;;;;22.38;63.44;100122.28;5033395;28;20356;-44
2023/09/09 02:41:37;;;;;;;21.77;9.40;;;;;;;22.36;63.81;100116.25;5046356;28;20049;-43
2023/09/09 02:44:04;;;;;;;21.52;9.82;;;;;;;22.33;63.58;100118.09;5041994;28;20049;-46
2023/09/09 02:46:31;;;;;;;16.13;8.85;;;;;;;22.30;63.39;100128.84;5043238;28;20060;-45
2023/09/09 02:48:57;;;;;;;16.67;9.43;;;;;;;22.28;63.66;100120.13;5044857;28;20095;-45
2023/09/09 02:51:24;;;;;;;17.27;8.68;;;;;;;22.26;63.59;100111.44;5042021;28;20157;-46
2023/09/09 02:53:51;;;;;;;21.77;9.50;;;;;;;22.25;63.91;100114.16;5038833;28;20080;-45
2023/09/09 02:56:18;;;;;;;17.65;8.23;;;;;;;22.23;63.61;100116.88;5042355;28;20048;-47
2023/09/09 02:58:45;;;;;;;19.00;9.75;;;;;;;22.23;64.28;100122.16;5042552;28;20708;-46
2023/09/09 03:01:11;;;;;;;16.25;8.88;;;;;;;22.21;64.06;100111.69;5037863;28;20063;-43
2023/09/09 03:03:38;;;;;;;21.20;9.25;;;;;;;22.20;63.86;100114.41;5042759;28;20053;-46
2023/09/09 03:06:10;;;;;;;20.77;9.25;;;;;;;22.18;64.50;100108.31;5045426;28;20041;-46
2023/09/09 03:08:37;;;;;;;15.57;8.98;;;;;;;22.16;64.34;100110.22;5042231;28;20049;-47
2023/09/09 03:11:03;;;;;;;13.23;7.72;;;;;;;22.15;63.70;100119.06;5033126;28;20502;-43
2023/09/09 03:13:30;;;;;;;19.33;8.23;;;;;;;22.12;64.15;100104.22;5021549;28;20124;-48
2023/09/09 03:15:57;;;;;;;20.65;9.23;;;;;;;22.12;64.64;100113.94;5043957;28;20425;-46
2023/09/09 03:18:24;;;;;;;21.75;10.65;;;;;;;22.10;64.85;100106.09;5037498;28;20064;-48
2023/09/09 03:20:51;;;;;;;20.75;10.77;;;;;;;22.07;65.10;100109.75;5046154;28;20087;-47
2023/09/09 03:23:18;;;;;;;22.20;10.60;;;;;;;22.04;64.89;100112.53;5045618;28;20107;-46
2023/09/09 03:25:44;;;;;;;19.00;9.68;;;;;;;22.00;64.33;100116.25;5043364;28;20495;-46
2023/09/09 03:28:11;;;;;;;19.30;10.05;;;;;;;21.98;64.61;100109.34;5047543;28;20060;-43
2023/09/09 03:30:57;;;;;;;17.27;9.20;;;;;;;21.90;64.83;100109.72;5043632;28;20044;-46
2023/09/09 03:33:26;;;;;;;23.08;9.80;;;;;;;21.94;64.79;100106.00;5043133;28;20049;-46
2023/09/09 03:35:53;;;;;;;;;;;;;;;21.72;64.97;100107.03;5036043;28;20051;-48
2023/09/09 03:38:20;;;;;;;22.02;9.68;;;;;;;21.89;64.92;100113.28;5028344;28;20422;-45
2023/09/09 03:40:47;;;;;;;21.10;8.75;;;;;;;21.90;64.08;100109.72;5037822;28;20071;-49
2023/09/09 03:43:14;;;;;;;19.20;8.73;;;;;;;21.90;64.62;100107.06;5043738;28;20187;-41
2023/09/09 03:45:41;;;;;;;23.02;9.38;;;;;;;21.89;64.35;100113.28;5041030;28;20037;-50
2023/09/09 03:48:09;;;;;;;21.90;9.82;;;;;;;21.88;65.04;100116.88;5045096;28;20566;-48
2023/09/09 03:50:36;;;;;;;25.10;9.30;;;;;;;21.85;65.17;100111.72;5046544;28;20044;-45
2023/09/09 03:53:03;;;;;;;16.13;9.65;;;;;;;21.80;65.01;100110.19;5045437;28;20065;-46
2023/09/09 03:55:30;;;;;;;19.25;9.40;;;;;;;21.81;65.12;100116.28;5044499;28;20045;-43
2023/09/09 03:57:56;;;;;;;20.95;11.00;;;;;;;21.79;65.42;100108.44;5044934;28;20355;-47
2023/09/09 04:00:23;;;;;;;18.38;10.70;;;;;;;21.78;65.31;100106.75;5046345;28;20409;-47
2023/09/09 04:02:50;;;;;;;19.27;10.18;;;;;;;21.78;65.23;100117.28;5039936;28;20052;-47
2023/09/09 04:05:17;;;;;;;18.73;9.85;;;;;;;21.74;64.96;100110.47;5044962;28;20052;-45
2023/09/09 04:07:44;;;;;;;20.05;9.32;;;;;;;21.74;65.47;100117.50;5045615;28;20052;-47
2023/09/09 04:10:12;;;;;;;20.63;9.85;;;;;;;21.70;65.59;100106.25;5045818;28;20956;-45
2023/09/09 04:12:39;;;;;;;19.23;9.90;;;;;;;21.69;65.53;100112.44;5045836;28;20581;-46
2023/09/09 04:15:07;;;;;;;19.48;9.52;;;;;;;21.67;65.70;100109.03;5042344;28;20498;-44
2023/09/09 04:17:34;;;;;;;21.70;9.98;;;;;;;21.65;65.14;100110.91;5044108;28;20083;-50
2023/09/09 04:20:01;;;;;;;20.92;9.82;;;;;;;21.64;65.63;100109.16;5044861;28;20045;-46
2023/09/09 04:22:28;;;;;;;22.17;10.35;;;;;;;21.62;65.45;100111.91;5046138;28;20037;-45
2023/09/09 04:24:54;;;;;;;18.15;10.40;;;;;;;21.61;65.59;100109.34;5044719;28;20049;-44
2023/09/09 04:27:23;;;;;;;17.27;10.27;;;;;;;21.62;65.74;100113.66;5041440;28;20500;-45
2023/09/09 04:29:49;;;;;;;24.00;11.68;;;;;;;21.58;66.03;100116.44;5043815;28;20044;-43
2023/09/09 04:32:16;;;;;;;21.77;10.13;;;;;;;21.57;66.07;100116.53;5043046;28;20048;-46
2023/09/09 04:34:44;;;;;;;19.50;10.60;;;;;;;21.55;65.73;100119.22;5046112;28;20041;-44
2023/09/09 04:37:10;;;;;;;20.88;10.73;;;;;;;21.54;66.42;100120.16;5045409;28;20041;-47
2023/09/09 04:39:37;;;;;;;21.30;10.52;;;;;;;21.52;65.95;100122.00;5045414;28;20044;-46
2023/09/09 04:42:04;;;;;;;21.08;10.13;;;;;;;21.52;66.38;100116.72;5042547;28;20048;-43
2023/09/09 04:44:30;;;;;;;23.67;10.73;;;;;;;21.50;66.30;100113.34;5042926;28;20132;-46
2023/09/09 04:46:57;;;;;;;20.05;11.32;;;;;;;21.50;66.47;100117.72;5044169;28;20513;-45
2023/09/09 04:49:24;;;;;;;25.83;9.35;;;;;;;21.48;66.55;100120.44;5045489;28;20178;-46
2023/09/09 04:51:51;;;;;;;20.45;9.88;;;;;;;21.48;66.88;100120.44;5049020;28;20471;-42
2023/09/09 04:54:18;;;;;;;19.95;10.10;;;;;;;21.45;66.25;100110.91;5047568;28;20064;-45
2023/09/09 04:56:46;;;;;;;25.40;10.35;;;;;;;21.45;66.68;100120.63;5048818;28;20044;-43
2023/09/09 04:59:13;;;;;;;19.85;10.30;;;;;;;21.44;66.83;100110.97;5046221;28;20094;-44
2023/09/09 05:01:40;;;;;;;21.67;10.90;;;;;;;21.44;67.17;100116.25;5049593;28;20136;-48
2023/09/09 05:04:07;;;;;;;22.05;10.02;;;;;;;21.43;67.10;100117.19;5047573;28;20562;-48
2023/09/09 05:06:34;;;;;;;17.13;9.75;;;;;;;21.43;67.39;100111.91;5033616;28;20124;-43
2023/09/09 05:09:01;;;;;;;17.88;10.77;;;;;;;21.42;66.97;100111.03;5034947;28;20045;-43
2023/09/09 05:11:28;;;;;;;19.38;10.52;;;;;;;21.40;67.18;100117.31;5047888;28;20628;-52
2023/09/09 05:13:54;;;;;;;24.20;9.50;;;;;;;21.38;67.38;100108.66;5047773;28;20052;-46
2023/09/09 05:16:21;;;;;;;21.52;10.30;;;;;;;21.37;67.39;100112.19;5044850;28;20045;-44
2023/09/09 05:18:48;;;;;;;19.83;11.00;;;;;;;21.34;67.05;100117.63;5048191;28;20049;-45
2023/09/09 05:21:14;;;;;;;21.77;11.00;;;;;;;21.31;67.14;100119.47;5042594;28;20132;-44
2023/09/09 05:23:41;;;;;;;20.50;11.18;;;;;;;21.31;67.38;100118.63;5048611;28;20120;-42
2023/09/09 05:26:08;;;;;;;22.80;10.98;;;;;;;21.29;67.53;100118.69;5044225;28;20045;-46
2023/09/09 05:28:35;;;;;;;24.05;10.70;;;;;;;21.28;67.19;100124.88;5043858;28;20131;-50
2023/09/09 05:31:06;;;;;;;22.13;9.52;;;;;;;21.27;67.01;100123.16;5049729;28;20084;-45
2023/09/09 05:33:33;;;;;;;23.42;10.95;;;;;;;21.24;67.48;100120.66;5048169;28;20037;-45
2023/09/09 05:35:59;;;;;;;23.83;10.80;;;;;;;21.24;67.34;100118.03;5048124;28;20049;-48
2023/09/09 05:38:26;;;;;;;23.83;11.40;;;;;;;21.23;67.45;100120.75;5047050;28;20068;-48
2023/09/09 05:40:53;;;;;;;19.77;11.88;;;;;;;21.21;67.89;100126.06;5046935;28;20056;-44
2023/09/09 05:43:20;;;;;;;22.48;10.90;;;;;;;21.20;67.66;100127.00;5047734;28;20056;-47
2023/09/09 05:45:47;;;;;;;21.30;10.77;;;;;;;21.20;67.90;100132.28;5043520;28;20080;-46
2023/09/09 05:48:14;;;;;;;21.70;11.70;;;;;;;21.19;67.74;100131.44;5044972;28;20049;-45
2023/09/09 05:50:42;;;;;;;23.75;12.07;;;;;;;21.19;67.86;100131.44;5045188;28;20480;-49
2023/09/09 05:53:08;;;;;;;19.20;10.45;;;;;;;21.20;68.09;100129.63;5045957;28;20052;-47
2023/09/09 05:55:35;;;;;;;24.05;12.05;;;;;;;21.21;68.12;100128.72;5046273;28;20051;-45
2023/09/09 05:58:02;;;;;;;19.85;11.20;;;;;;;21.23;67.89;100131.28;5046785;28;20049;-47
2023/09/09 06:00:29;;;;;;;22.35;10.20;;;;;;;21.23;67.99;100137.41;5044182;28;20053;-46
2023/09/09 06:02:56;;;;;;;24.85;11.20;;;;;;;21.25;68.04;100138.19;5039195;28;20601;-45
2023/09/09 06:05:22;;;;;;;23.40;9.95;;;;;;;21.28;67.90;100138.03;5041030;28;20128;-44
2023/09/09 06:07:49;;;;;;;21.83;10.45;;;;;;;21.30;68.22;100144.09;5041804;28;20057;-45
2023/09/09 06:10:16;;;;;;;19.23;9.63;;;;;;;21.33;68.20;100148.38;5038063;28;20080;-46
2023/09/09 06:12:43;;;;;;;23.17;9.93;;;;;;;21.36;68.36;100148.22;5040086;28;20049;-46
2023/09/09 06:15:10;;;;;;;21.75;10.35;;;;;;;21.40;67.78;100154.19;5045335;28;20053;-45
2023/09/09 06:17:39;;;;;;;22.88;9.63;;;;;;;21.43;67.99;100149.66;5046752;28;20041;-46
2023/09/09 06:20:07;;;;;;;20.73;10.65;;;;;;;21.49;67.98;100156.41;5044123;28;20507;-47
2023/09/09 06:22:34;;;;;;;24.90;10.38;;;;;;;21.54;68.09;100154.41;5039367;28;20545;-43
2023/09/09 06:25:01;;;;;;;23.92;11.35;;;;;;;21.57;68.60;100146.38;5041038;28;20047;-46
2023/09/09 06:27:28;;;;;;;30.60;11.32;;;;;;;21.63;68.31;100150.50;5047473;28;20055;-47
2023/09/09 06:29:54;;;;;;;28.58;10.23;;;;;;;21.69;67.74;100159.91;5041498;28;20048;-43
2023/09/09 06:32:22;;;;;;;20.65;10.13;;;;;;;21.75;68.43;100149.06;5047672;28;20064;-46
2023/09/09 06:34:49;;;;;;;24.98;9.85;;;;;;;21.78;68.43;100148.94;5044126;28;20076;-43
2023/09/09 06:37:15;;;;;;;23.35;10.13;;;;;;;21.87;67.70;100146.78;5046906;28;20037;-44
2023/09/09 06:39:42;;;;;;;22.30;9.38;;;;;;;21.94;68.55;100153.47;5042455;28;20057;-50
2023/09/09 06:42:09;;;;;;;22.92;10.60;;;;;;;22.00;68.41;100158.44;5046525;28;20049;-46
2023/09/09 06:44:36;;;;;;;21.42;10.32;;;;;;;22.08;68.21;100155.41;5047014;28;20131;-44
2023/09/09 06:47:02;;;;;;;20.58;9.60;;;;;;;22.15;68.33;100155.97;5045081;28;20041;-47
2023/09/09 06:49:29;;;;;;;22.10;9.70;;;;;;;22.23;68.06;100161.72;5047544;28;20048;-45
2023/09/09 06:51:56;;;;;;;18.33;9.25;;;;;;;22.32;67.55;100163.88;5046898;28;20056;-45
2023/09/09 06:54:22;;;;;;;19.25;9.82;;;;;;;22.42;68.10;100164.28;5048232;28;20055;-46
2023/09/09 06:56:49;;;;;;;18.17;8.68;;;;;;;22.51;68.21;100157.69;5046662;28;20044;-45
2023/09/09 06:59:15;;;;;;;20.85;9.57;;;;;;;22.60;68.50;100156.41;5045493;28;20053;-47
2023/09/09 07:01:42;;;;;;;24.88;11.07;;;;;;;22.70;68.25;100152.31;5042505;28;20056;-45
2023/09/09 07:04:09;;;;;;;25.25;10.85;;;;;;;23.07;67.65;100153.97;5042273;28;20045;-43
2023/09/09 07:06:35;;;;;;;19.45;9.07;;;;;;;23.62;67.33;100150.13;5043093;28;20136;-49
2023/09/09 07:09:02;;;;;;;18.75;8.82;;;;;;;24.25;66.24;100162.50;5045473;28;20052;-46
2023/09/09 07:11:29;;;;;;;23.50;8.93;;;;;;;24.89;65.46;100167.53;5044449;28;20057;-44
2023/09/09 07:13:56;;;;;;;16.30;8.57;;;;;;;25.47;64.29;100171.09;5044278;28;20049;-48
2023/09/09 07:16:22;;;;;;;13.45;8.02;;;;;;;26.06;63.42;100169.97;5043339;28;20071;-45
2023/09/09 07:18:49;;;;;;;16.48;8.90;;;;;;;26.59;61.75;100176.25;5042008;28;20053;-46
2023/09/09 07:21:16;;;;;;;16.65;7.93;;;;;;;27.07;61.69;100170.34;5039838;28;20627;-50
2023/09/09 07:23:43;;;;;;;17.20;7.75;;;;;;;27.52;60.46;100171.63;5042060;28;20498;-45
2023/09/09 07:26:09;;;;;;;19.85;8.60;;;;;;;27.91;58.70;100166.16;5042073;28;20534;-43
2023/09/09 07:28:36;;;;;;;16.45;7.53;;;;;;;28.31;58.40;100176.53;5038494;28;20120;-46
2023/09/09 07:31:04;;;;;;;20.95;6.82;;;;;;;28.73;57.46;100181.31;5042996;28;20053;-46
2023/09/09 07:33:31;;;;;;;17.90;7.20;;;;;;;29.10;56.77;100174.06;5042551;28;20683;-45
2023/09/09 07:35:57;;;;;;;12.85;6.70;;;;;;;29.44;55.45;100176.72;5038372;28;20041;-49
2023/09/09 07:38:24;;;;;;;20.98;7.22;;;;;;;29.73;54.60;100181.53;5042983;28;20052;-43
2023/09/09 07:40:58;;;;;;;15.35;7.10;;;;;;;30.06;54.13;100175.34;5036408;28;20055;-46
2023/09/09 07:43:25;;;;;;;19.02;8.10;;;;;;;30.42;53.73;100175.91;5038371;28;20057;-43
2023/09/09 07:45:53;;;;;;;15.13;6.68;;;;;;;30.76;53.03;100181.06;5042124;28;20464;-47
2023/09/09 07:48:20;;;;;;;24.35;7.55;;;;;;;31.13;52.49;100184.16;5045671;28;20049;-48
2023/09/09 07:50:52;;;;;;;16.95;6.72;;;;;;;31.53;51.44;100188.66;5043102;28;20460;-45
2023/09/09 07:53:19;;;;;;;21.40;7.57;;;;;;;31.84;50.41;100186.88;5045770;28;20053;-47
2023/09/09 07:55:48;;;;;;;17.35;6.53;;;;;;;32.07;50.08;100182.09;5045178;28;20490;-46
2023/09/09 07:58:16;;;;;;;14.77;6.32;;;;;;;32.31;49.68;100194.19;5046500;28;20051;-48
2023/09/09 08:00:44;;;;;;;20.50;6.57;;;;;;;32.54;49.33;100194.78;5025282;28;20057;-45
2023/09/09 08:03:11;;;;;;;15.90;6.60;;;;;;;32.70;48.57;100199.50;5043541;28;20088;-49
2023/09/09 08:05:38;;;;;;;21.92;7.10;;;;;;;32.90;48.47;100198.59;5039964;28;20128;-48
2023/09/09 08:08:07;;;;;;;17.02;6.20;;;;;;;33.14;47.75;100194.59;5024867;28;20051;-46
2023/09/09 08:10:34;;;;;;;17.55;5.47;;;;;;;33.45;47.52;100191.59;5037570;28;20423;-49
2023/09/09 08:13:01;;;;;;;29.38;5.85;;;;;;;33.82;46.92;100195.19;5045233;28;20047;-51
2023/09/09 08:15:28;;;;;;;16.58;5.60;;;;;;;34.21;46.05;100191.34;5038980;28;20045;-48
2023/09/09 08:18:06;;;;;;;14.07;5.85;;;;;;;34.58;45.15;100192.94;5033089;28;20621;-48
2023/09/09 08:20:32;;;;;;;18.42;5.68;;;;;;;34.88;44.76;100198.00;5037782;28;20466;-44
2023/09/09 08:22:59;;;;;;;22.35;5.35;;;;;;;35.17;44.92;100201.34;5039646;28;20048;-45
2023/09/09 08:25:26;;;;;;;29.67;6.45;;;;;;;35.44;43.96;100202.09;5046640;28;20588;-46
2023/09/09 08:27:53;;;;;;;25.42;5.78;;;;;;;35.70;43.60;100204.75;5033829;28;20133;-45
2023/09/09 08:30:20;;;;;;;18.02;6.72;;;;;;;35.95;42.96;100203.91;5034273;28;20051;-45
2023/09/09 08:32:47;;;;;;;17.10;6.00;;;;;;;36.25;42.60;100199.72;5038767;28;20048;-46
2023/09/09 08:35:13;;;;;;;19.35;5.85;;;;;;;36.57;42.12;100205.22;5031586;28;20359;-47
2023/09/09 08:37:40;;;;;;;17.88;6.05;;;;;;;36.90;41.76;100207.88;5014516;28;20050;-48
2023/09/09 08:40:08;;;;;;;22.40;6.00;;;;;;;37.20;41.16;100206.41;5038126;28;20053;-49
2023/09/09 08:45:47;;;;;;;15.73;4.70;;;;;;;37.93;40.30;100201.59;5022214;28;20406;-52
2023/09/09 08:48:17;;;;;;;;;;;;;;;38.35;40.85;100201.25;5016151;28;20566;-46
2023/09/09 08:50:47;;;;;;;22.15;6.32;;;;;;;38.50;39.67;100197.75;4992409;28;20037;-44
2023/09/09 08:53:16;;;;;;;16.33;5.05;;;;;;;38.75;38.96;100202.91;4989404;28;20046;-53
2023/09/09 08:55:42;;;;;;;25.65;4.57;;;;;;;38.94;38.53;100206.91;4993975;28;20050;-44
2023/09/09 08:58:10;;;;;;;16.10;4.40;;;;;;;39.12;38.23;100195.72;4993536;28;20062;-46
2023/09/09 09:00:39;;;;;;;24.50;4.47;;;;;;;39.29;36.78;100201.75;4997091;28;20065;-52
2023/09/09 09:03:05;;;;;;;;;;;;;;;39.58;37.41;100201.88;4997656;28;20112;-51
2023/09/09 09:05:33;;;;;;;18.88;4.28;;;;;;;39.46;36.49;100194.22;4993863;28;19928;-47
2023/09/09 09:08:02;;;;;;;21.67;4.85;;;;;;;39.51;36.62;100204.47;4995566;28;20547;-52
2023/09/09 09:10:29;;;;;;;20.88;4.50;;;;;;;39.61;35.93;100196.06;4999887;28;20065;-52
2023/09/09 09:12:56;;;;;;;14.32;5.15;;;;;;;39.74;35.94;100198.06;4992380;28;20050;-49
2023/09/09 09:15:24;;;;;;;13.68;3.92;;;;;;;39.88;35.13;100198.19;4991903;28;20050;-48
2023/09/09 09:17:53;;;;;;;14.00;4.68;;;;;;;39.96;35.22;100198.91;5007383;28;20077;-51
2023/09/09 09:23:02;;;;;;;11.75;4.38;;;;;;;40.23;34.82;100199.13;5050583;28;21207;-49
2023/09/09 09:25:35;;;;;;;10.05;3.53;;;;;;;40.34;34.77;100205.03;5014791;28;20048;-49
2023/09/09 09:28:03;;;;;;;10.82;3.80;;;;;;;40.42;34.36;100195.91;5008124;28;20050;-46
2023/09/09 09:30:31;;;;;;;15.68;4.15;;;;;;;40.51;34.10;100200.19;4995358;28;20550;-47
2023/09/09 09:32:58;;;;;;;16.25;4.10;;;;;;;40.58;34.14;100202.91;5032371;28;20050;-44
2023/09/09 09:38:06;;;;;;;18.55;5.63;;;;;;;40.58;34.09;100206.47;5039348;28;20392;-50
2023/09/09 09:40:34;;;;;;;22.95;5.40;;;;;;;40.50;33.73;100203.09;5027159;28;20106;-47
2023/09/09 09:43:02;;;;;;;16.25;5.70;;;;;;;40.43;33.77;100201.16;5031194;28;20050;-49
2023/09/09 09:45:30;;;;;;;20.60;6.47;;;;;;;40.42;33.47;100196.75;5010058;28;20053;-48
2023/09/09 09:47:59;;;;;;;14.77;5.40;;;;;;;40.36;33.60;100206.50;5023496;28;20049;-50
2023/09/09 09:50:30;;;;;;;20.33;7.43;;;;;;;40.37;33.98;100204.66;5024795;28;20057;-45
2023/09/09 09:55:37;;;;;;;17.77;4.25;;;;;;;40.47;33.65;100194.31;5057080;28;20403;-53
2023/09/09 09:58:05;;;;;;;16.70;5.22;;;;;;;40.56;33.48;100199.59;5009525;27;20045;-48
2023/09/09 10:00:33;;;;;;;14.20;4.30;;;;;;;40.62;33.27;100198.75;4982571;28;20496;-46
2023/09/09 10:03:02;;;;;;;13.13;4.03;;;;;;;40.59;33.10;100202.72;5005090;28;20046;-49
2023/09/09 10:05:30;;;;;;;12.73;4.20;;;;;;;40.58;33.18;100200.22;4992572;28;20078;-46
2023/09/09 10:08:20;;;;;;;15.30;6.35;;;;;;;40.64;33.18;100195.84;4998728;28;20535;-51
2023/09/09 10:11:02;;;;;;;8.93;4.35;;;;;;;40.65;33.52;100203.78;4993451;28;20057;-50
2023/09/09 10:13:35;;;;;;;;;;;;;;;40.76;33.96;100196.13;4979011;28;20058;-49
2023/09/09 10:16:04;;;;;;;11.73;4.68;;;;;;;40.64;33.25;100188.56;4974046;28;19977;-47
2023/09/09 10:18:31;;;;;;;18.42;3.47;;;;;;;40.65;33.73;100195.66;4970411;28;20054;-49
2023/09/09 10:20:59;;;;;;;13.80;4.10;;;;;;;40.61;32.65;100183.53;4985081;28;20064;-51
2023/09/09 10:23:27;;;;;;;11.50;3.28;;;;;;;40.51;32.77;100178.47;4998664;28;20053;-52
2023/09/09 10:25:54;;;;;;;16.55;3.53;;;;;;;40.44;32.68;100180.28;4998843;28;20049;-48
2023/09/09 10:28:21;;;;;;;13.30;3.83;;;;;;;40.39;33.26;100175.47;5003238;28;20057;-48
2023/09/09 10:30:48;;;;;;;11.82;3.55;;;;;;;40.31;32.57;100167.44;4998052;28;20107;-44
2023/09/09 10:33:18;;;;;;;15.55;3.80;;;;;;;40.21;32.03;100174.06;4999550;28;20048;-49
2023/09/09 10:35:46;;;;;;;10.77;3.47;;;;;;;40.15;32.36;100168.63;4992486;28;20129;-50
2023/09/09 10:38:14;;;;;;;12.98;3.83;;;;;;;40.16;32.17;100168.41;4999090;28;20428;-48
2023/09/09 10:40:42;;;;;;;13.57;3.53;;;;;;;40.11;31.98;100179.00;5000029;28;20789;-51
2023/09/09 10:43:09;;;;;;;8.43;3.03;;;;;;;40.05;32.88;100174.38;4994048;28;20042;-45
2023/09/09 10:45:41;;;;;;;17.02;3.83;;;;;;;40.00;31.82;100171.41;5000453;28;20407;-48
2023/09/09 10:48:10;;;;;;;11.68;3.05;;;;;;;40.02;32.51;100172.91;4989847;28;20137;-49
2023/09/09 10:55:56;;;;;;;12.30;5.70;;;;;;;40.03;32.26;100165.59;5053677;27;20406;-49
2023/09/09 10:58:38;;;;;;;18.85;5.88;;;;;;;40.04;32.44;100172.72;5015027;28;20064;-47
2023/09/09 11:01:07;;;;;;;16.67;5.80;;;;;;;39.94;32.72;100168.41;5011743;28;20041;-46
2023/09/09 11:03:37;;;;;;;;;;;;;;;39.91;32.81;100167.97;5010970;28;20053;-48
2023/09/09 11:06:06;;;;;;;14.32;4.78;;;;;;;39.87;32.47;100161.28;5009874;28;19925;-53
2023/09/09 11:21:55;;;;;;;8.82;4.68;;;;;;;38.63;32.23;100151.13;5084196;27;20347;-50
2023/09/09 11:24:23;;;;;;;11.50;5.45;;;;;;;38.53;32.28;100151.38;5043487;28;20129;-49
2023/09/09 11:26:51;;;;;;;14.95;4.10;;;;;;;38.42;32.25;100150.81;5048379;28;20052;-49
2023/09/09 11:29:18;;;;;;;13.23;5.05;;;;;;;38.43;32.62;100148.97;5041190;28;20057;-53
2023/09/09 11:32:02;;;;;;;8.98;4.97;;;;;;;38.48;33.13;100151.09;5052086;28;20045;-55
2023/09/09 11:34:32;;;;;;;14.07;3.85;;;;;;;38.54;32.38;100147.66;5048249;28;20059;-52
2023/09/09 11:37:02;;;;;;;15.10;4.40;;;;;;;38.66;32.79;100150.75;5042075;28;20524;-50
2023/09/09 11:39:29;;;;;;;11.07;4.90;;;;;;;38.80;32.64;100149.06;5047968;28;20096;-54
2023/09/09 11:41:57;;;;;;;9.05;4.63;;;;;;;38.92;32.63;100144.84;5050855;28;20107;-53
2023/09/09 11:44:23;;;;;;;9.55;4.57;;;;;;;38.91;31.88;100142.31;5036023;28;20056;-49
2023/09/09 11:46:51;;;;;;;14.30;4.60;;;;;;;38.72;31.57;100135.66;5044725;28;20128;-51
2023/09/09 11:49:18;;;;;;;8.52;4.80;;;;;;;38.56;32.03;100142.91;5048576;28;20049;-55